Lambric, Kentucky
Current Conditions -  °F | °C
As of 2:53 PM on Sunday 25 Jan 2015 (Local Time) from KJKL Reporting Station
Clear Clear  
Wind Chill: 46°   Ceiling: Unl
Heat Index: 48°   Visibility: 10mi
Dew Point: 31°   Wind: 5mph
Humidity: 52%   Direction: NA
Pressure: 29.68"   Gusts: NA
Location:  37.532°N, 83.3068°W
Report Text: KJKL 251953Z AUTO VRB04KT 10SM CLR 09/M01 A2968 RMK AO2 SLP052 T00891006
Loading
Personal Weather Stations






























Interactive Weather Map New forecast layout! Learn more

10-Day Weather Forecast

Advertisements
Track Severe Weather on mobile